AirNav   TITAN Aviation Fuels
 
 1412 users online  

NV55 Pinenut Airport
Gardnerville, Nevada, USA

GOING TO GARDNERVILLE?


FAA INFORMATION EFFECTIVE 02 DECEMBER 2021

Location

FAA Identifier: NV55
Lat/Long: 38-53-55.9200N 119-38-57.9000W
38-53.932000N 119-38.965000W
38.8988667,-119.6494167
(estimated)
Elevation: 5260 ft. / 1603 m (estimated)
Variation: 16E (1985)
From city: 5 miles SE of GARDNERVILLE, NV
Time zone: UTC -8 (UTC -7 during Daylight Saving Time)
Zip code: 89410

Airport Operations

Airport use: Private use. Permission required prior to landing
Activation date: 07/1991
Control tower: no
ARTCC: OAKLAND CENTER
FSS: RENO FLIGHT SERVICE STATION
Attendance: UNATNDD
Wind indicator: yes
Segmented circle: no

Airport Communications

WX AWOS-3PT at MEV (8 nm NW): 119.325 (775-782-6264)
WX ASOS at TVL (16 nm W): 124.725 (530-541-5739)
WX AWOS-3PT at CXP (18 nm N): 119.925 (775-884-4708)

Nearby radio navigation aids

VOR radial/distance  VOR name  Freq  Var
SWRr104/33.5SQUAW VALLEY VOR/DME113.2016E
FMGr164/37.9MUSTANG VORTAC117.9016E

Airport Services

Runway Information

Runway 16/34

Dimensions: 2000 x 45 ft. / 610 x 14 m
Surface: dirt
RUNWAY 16  RUNWAY 34
Traffic pattern: leftleft
Obstructions: 18 ft. pline, marked, 660 ft. from runwaynone

Airport Ownership and Management from official FAA records

Ownership: Privately-owned
Owner: DON BARTHOLOMEW
885 TAILDRAGGER RD
GARDNERVILLE, NV 89410
Phone 775-782-2992
Manager: DON BARTHOLOMEW
885 TAILDRAGGER RD
GARDNERVILLE, NV 89410
Phone 775-721-3655

Airport Operational Statistics

Aircraft based on the field: 2
Single engine airplanes: 2
    

Additional Remarks

FOR CD CTC OAKLAND ARTCC AT 510-745-3380.

Instrument Procedures

There are no published instrument procedures at NV55.

Some nearby airports with instrument procedures:

KMEV - Minden-Tahoe Airport (8 nm NW)
KTVL - Lake Tahoe Airport (16 nm W)
KCXP - Carson City Airport (18 nm N)
KTRK - Truckee-Tahoe Airport (34 nm NW)
KSPZ - Silver Springs Airport (35 nm NE)
 
Loc | Ops | Rwys | IFR | FBO | Links
Com | Nav | Svcs | Stats | Notes
Area around NV55 (Pinenut Airport)
 
Road maps at: MapQuest Bing Google
 
Aerial photo
No photo
 
Sectional chart

 
Airport distance calculator
Flying to Pinenut Airport? Find the distance to fly.

From to NV55

Sunrise and sunset
Times for 07-Dec-2021
 Local
(UTC-8)
 Zulu
(UTC)
Morning civil twilight06:3514:35
Sunrise07:0515:05
Sunset16:3500:35
Evening civil twilight17:0501:05

Current date and time
Zulu (UTC)  07-Dec-2021 19:10:31
Local (UTC-8)  07-Dec-2021 11:10:31
 
METAR
KMEV 
8nm NW 
071855Z AUTO 00000KT 10SM BKN010 BKN016 OVC035 07/06 A3011 RMK AO2
KTVL 
16nm W 
071853Z AUTO VRB04KT 10SM OVC013 06/03 A3008 RMK AO2 SLP169 T00560028
KCXP 
18nm N 
071855Z AUTO 08006KT 10SM OVC033 08/07 A3013 RMK AO2
TAF
KMEV 
8nm NW 
071735Z 0718/0818 00000KT 6SM BR FEW015 SCT025 BKN040 FM072000 VRB04KT P6SM SCT030 FM080100 VRB03KT P6SM SKC
KTVL 
16nm W 
071735Z 0718/0818 VRB03KT P6SM FEW007 BKN030 OVC050 FM080400 20005KT P6SM SKC FM081500 22009G18KT P6SM BKN250
KCXP 
18nm N 
071735Z 0718/0818 07008KT 6SM BR SCT015 SCT050 OVC090 FM072000 07007KT P6SM SCT040 FM080200 VRB03KT P6SM SKC
NOTAMs
Click for the latest NOTAMs
NOTAMs are issued by the DoD/FAA and will open in a separate window not controlled by AirNav.

 

 
 

Would you like to see your business listed on this page?

 If your business provides an interesting product or service to pilots, flight crews, aircraft, or users of the Pinenut Airport, you should consider listing it here.  To start the listing process, click on the button below
 
Add a business
 

Other Pages about Pinenut Airport

Update a link
 
Copyright © AirNav, LLC. All rights reserved. Privacy Policy  Contact